Time;durP1;ratioP1;P1;durP2;ratioP2;P2;SDS_P1;SDS_P2;PMS_P1;PMS_P2;Temp;Humidity;BMP_temperature;BMP_pressure;BME280_temperature;BME280_humidity;BME280_pressure;Samples;Min_cycle;Max_cycle;Signal;HPM_P1;HPM_P2
2023/06/30 00:01:48;;;;;;;3.03;2.42;;;19.70;99.90;;;;;;5042663;28;20224;-31
2023/06/30 00:04:18;;;;;;;3.90;2.60;;;19.70;99.90;;;;;;5042877;28;20196;-32
2023/06/30 00:06:49;;;;;;;3.78;2.60;;;19.70;99.90;;;;;;5041334;28;20232;-31
2023/06/30 00:09:20;;;;;;;6.35;3.42;;;19.70;99.90;;;;;;5042516;28;20291;-31
2023/06/30 00:11:53;;;;;;;3.22;2.70;;;19.70;99.90;;;;;;5041190;28;20230;-32
2023/06/30 00:14:23;;;;;;;5.15;2.58;;;19.70;99.90;;;;;;5058080;28;20620;-31
2023/06/30 00:16:50;;;;;;;5.05;2.85;;;19.60;99.90;;;;;;5042784;28;20238;-31
2023/06/30 00:19:18;;;;;;;4.78;2.88;;;19.60;99.90;;;;;;5043412;28;20980;-31
2023/06/30 00:21:52;;;;;;;4.80;2.75;;;19.60;99.90;;;;;;5042611;28;20212;-31
2023/06/30 00:24:21;;;;;;;3.65;2.85;;;19.60;99.90;;;;;;5040588;28;20196;-32
2023/06/30 00:26:48;;;;;;;4.72;3.17;;;19.60;99.90;;;;;;5042499;28;20640;-32
2023/06/30 00:29:15;;;;;;;4.35;3.30;;;19.60;99.90;;;;;;5042859;28;20204;-31
2023/06/30 00:31:45;;;;;;;6.43;3.90;;;19.60;99.90;;;;;;5041650;28;20207;-31
2023/06/30 00:34:14;;;;;;;3.97;3.60;;;19.50;99.90;;;;;;5045466;28;20281;-32
2023/06/30 00:36:41;;;;;;;4.32;3.55;;;19.50;99.90;;;;;;5044840;28;20755;-31
2023/06/30 00:39:11;;;;;;;5.30;3.78;;;19.40;99.90;;;;;;5046392;28;20254;-31
2023/06/30 00:41:41;;;;;;;6.38;3.80;;;19.40;99.90;;;;;;5044659;28;20211;-31
2023/06/30 00:44:15;;;;;;;4.50;4.05;;;19.40;99.90;;;;;;5046604;28;20192;-32
2023/06/30 00:46:42;;;;;;;5.60;4.18;;;19.40;99.90;;;;;;5061750;28;20200;-31
2023/06/30 00:49:09;;;;;;;6.85;4.22;;;19.40;99.90;;;;;;5046313;28;20202;-32
2023/06/30 00:51:37;;;;;;;7.00;4.10;;;19.40;99.90;;;;;;5046437;28;20200;-32
2023/06/30 00:54:07;;;;;;;4.65;4.20;;;19.40;99.90;;;;;;5044568;28;20303;-31
2023/06/30 00:56:36;;;;;;;4.82;4.10;;;19.40;99.90;;;;;;5044998;28;20597;-32
2023/06/30 00:59:04;;;;;;;5.75;4.38;;;19.40;99.90;;;;;;5046001;28;20793;-31
2023/06/30 01:01:40;;;;;;;7.95;4.50;;;19.40;99.90;;;;;;5044502;28;20203;-32
2023/06/30 01:04:16;;;;;;;6.70;4.80;;;19.50;99.90;;;;;;5044166;28;20192;-32
2023/06/30 01:06:57;;;;;;;9.10;4.85;;;19.50;99.90;;;;;;5046373;28;20204;-31
2023/06/30 01:09:32;;;;;;;7.07;4.60;;;19.50;99.90;;;;;;5044314;28;20600;-31
2023/06/30 01:12:04;;;;;;;6.13;3.80;;;19.50;99.90;;;;;;5045972;28;20218;-32
2023/06/30 01:14:33;;;;;;;4.25;3.35;;;19.50;99.90;;;;;;5044646;28;20294;-31
2023/06/30 01:17:02;;;;;;;7.20;4.30;;;19.40;99.90;;;;;;5044476;28;20204;-32
2023/06/30 01:19:44;;;;;;;6.18;4.00;;;19.40;99.90;;;;;;5044325;28;20830;-32
2023/06/30 01:22:21;;;;;;;5.40;3.63;;;19.40;99.90;;;;;;5045648;28;20363;-32
2023/06/30 01:24:55;;;;;;;5.53;3.95;;;19.40;99.90;;;;;;5045655;28;20355;-32
2023/06/30 01:27:25;;;;;;;5.25;3.28;;;19.30;99.90;;;;;;5060646;28;20263;-32
2023/06/30 01:29:53;;;;;;;6.68;4.07;;;19.30;99.90;;;;;;5045464;28;20200;-32
2023/06/30 01:32:25;;;;;;;8.02;3.58;;;19.30;99.90;;;;;;5044024;28;20593;-32
2023/06/30 01:34:53;;;;;;;8.40;3.70;;;19.30;99.90;;;;;;5043725;28;20270;-32
2023/06/30 01:37:20;;;;;;;6.15;3.55;;;19.30;99.90;;;;;;5043699;28;20207;-32
2023/06/30 01:39:49;;;;;;;5.72;3.25;;;19.30;99.90;;;;;;5043889;28;20208;-32
2023/06/30 01:42:18;;;;;;;4.18;3.15;;;19.20;99.90;;;;;;5043761;28;20228;-32
2023/06/30 01:44:53;;;;;;;7.13;3.47;;;19.20;99.90;;;;;;5045101;28;20208;-32
2023/06/30 01:47:21;;;;;;;6.95;3.80;;;19.30;99.90;;;;;;5045566;28;20199;-27
2023/06/30 01:49:51;;;;;;;6.28;3.60;;;19.20;99.90;;;;;;5045077;28;20262;-27
2023/06/30 01:52:20;;;;;;;5.43;3.30;;;19.20;99.90;;;;;;5043405;28;20208;-27
2023/06/30 01:54:50;;;;;;;5.97;3.88;;;19.20;99.90;;;;;;5043540;28;20235;-27
2023/06/30 01:57:25;;;;;;;7.03;3.50;;;19.20;99.90;;;;;;5045207;28;20692;-27
2023/06/30 01:59:55;;;;;;;5.47;3.50;;;19.20;99.90;;;;;;5043388;28;20273;-27
2023/06/30 02:02:22;;;;;;;7.13;3.65;;;19.20;99.90;;;;;;5044583;28;20223;-27
2023/06/30 02:04:52;;;;;;;6.05;3.15;;;19.20;99.90;;;;;;5045063;28;20419;-27
2023/06/30 02:07:23;;;;;;;6.38;3.50;;;19.20;99.90;;;;;;5045054;28;20215;-27
2023/06/30 02:09:50;;;;;;;5.05;2.90;;;19.20;99.90;;;;;;5044918;28;20200;-28
2023/06/30 02:12:20;;;;;;;9.38;3.55;;;19.20;99.90;;;;;;5059837;28;20200;-27
2023/06/30 02:14:55;;;;;;;5.20;2.80;;;19.20;99.90;;;;;;5045029;28;20200;-27
2023/06/30 02:17:31;;;;;;;4.07;3.05;;;19.20;99.90;;;;;;5045380;28;20266;-27
2023/06/30 02:20:05;;;;;;;5.47;3.00;;;19.10;99.90;;;;;;5044679;28;20688;-27
2023/06/30 02:22:35;;;;;;;6.57;3.20;;;19.10;99.90;;;;;;5043360;28;20258;-27
2023/06/30 02:25:03;;;;;;;7.60;3.38;;;19.10;99.90;;;;;;5044351;28;20211;-27
2023/06/30 02:27:30;;;;;;;6.32;3.33;;;19.10;99.90;;;;;;5043166;28;20538;-27
2023/06/30 02:30:05;;;;;;;8.70;3.70;;;19.10;99.90;;;;;;5044693;28;20283;-27
2023/06/30 02:32:41;;;;;;;6.88;3.42;;;19.10;99.90;;;;;;5043152;28;20295;-27
2023/06/30 02:35:12;;;;;;;7.70;3.58;;;19.10;99.90;;;;;;5044256;28;20261;-27
2023/06/30 02:37:42;;;;;;;7.18;3.20;;;19.10;99.90;;;;;;5059551;28;20204;-27
2023/06/30 02:40:10;;;;;;;7.80;3.38;;;19.00;99.90;;;;;;5042643;28;20208;-27
2023/06/30 02:42:40;;;;;;;7.88;3.58;;;19.00;99.90;;;;;;5044112;28;20220;-27
2023/06/30 02:45:10;;;;;;;11.23;3.47;;;19.00;99.90;;;;;;5042942;28;20205;-28
2023/06/30 02:47:38;;;;;;;8.07;3.20;;;19.00;99.90;;;;;;5044641;28;20231;-27
2023/06/30 02:50:11;;;;;;;10.65;3.90;;;19.00;99.90;;;;;;5043314;28;20204;-28
2023/06/30 02:52:39;;;;;;;6.32;3.10;;;18.90;99.90;;;;;;5042897;28;20577;-28
2023/06/30 02:55:06;;;;;;;9.23;3.35;;;18.90;99.90;;;;;;5044389;28;20297;-28
2023/06/30 02:57:36;;;;;;;7.10;3.22;;;18.90;99.90;;;;;;5044400;28;20202;-27
2023/06/30 03:00:03;;;;;;;6.43;3.05;;;18.80;99.90;;;;;;5042709;28;20200;-28
2023/06/30 03:02:31;;;;;;;8.18;3.13;;;18.80;99.90;;;;;;5043024;28;20250;-27
2023/06/30 03:04:59;;;;;;;6.43;3.15;;;18.80;99.90;;;;;;5044004;28;20733;-27
2023/06/30 03:07:29;;;;;;;6.05;3.05;;;18.70;99.90;;;;;;5043718;28;20273;-28
2023/06/30 03:09:58;;;;;;;8.95;3.55;;;18.70;99.90;;;;;;5042504;28;20558;-28
2023/06/30 03:12:28;;;;;;;7.47;3.17;;;18.70;99.90;;;;;;5044262;28;20577;-28
2023/06/30 03:14:55;;;;;;;7.82;3.30;;;18.60;99.90;;;;;;5042133;28;20247;-28
2023/06/30 03:17:27;;;;;;;11.20;3.38;;;18.60;99.90;;;;;;5043665;28;20666;-27
2023/06/30 03:19:56;;;;;;;7.65;3.10;;;18.60;99.90;;;;;;5043523;28;20204;-28
2023/06/30 03:22:24;;;;;;;7.47;2.85;;;18.50;99.90;;;;;;5043298;28;20232;-28
2023/06/30 03:24:57;;;;;;;7.57;3.03;;;18.50;99.90;;;;;;5043717;28;20212;-28
2023/06/30 03:27:25;;;;;;;6.28;3.28;;;18.50;99.90;;;;;;5043501;28;20196;-28
2023/06/30 03:29:57;;;;;;;7.45;3.17;;;18.50;99.90;;;;;;5043993;28;20234;-28
2023/06/30 03:32:24;;;;;;;5.80;3.50;;;18.40;99.90;;;;;;5043724;28;20206;-28
2023/06/30 03:34:52;;;;;;;4.97;2.92;;;18.40;99.90;;;;;;5043661;28;20220;-28
2023/06/30 03:37:22;;;;;;;9.93;3.60;;;18.40;99.90;;;;;;5043521;28;20709;-28
2023/06/30 03:39:49;;;;;;;8.68;3.65;;;18.30;99.90;;;;;;5042009;28;20199;-28
2023/06/30 03:42:18;;;;;;;5.80;3.28;;;18.30;99.90;;;;;;5043525;28;20204;-28
2023/06/30 03:44:46;;;;;;;8.65;3.35;;;18.30;99.90;;;;;;5041693;28;20200;-32
2023/06/30 03:47:13;;;;;;;5.57;3.25;;;18.20;99.90;;;;;;5041616;28;20279;-32
2023/06/30 03:49:43;;;;;;;6.20;3.53;;;18.10;99.90;;;;;;5043014;28;20196;-32
2023/06/30 03:52:18;;;;;;;6.60;3.25;;;18.10;99.90;;;;;;5042894;28;20628;-32
2023/06/30 03:54:48;;;;;;;9.18;3.67;;;18.10;99.90;;;;;;5041268;28;20211;-32
2023/06/30 03:57:18;;;;;;;7.55;3.40;;;18.00;99.90;;;;;;5041974;28;20200;-32
2023/06/30 03:59:46;;;;;;;6.03;3.22;;;18.00;99.90;;;;;;5042906;28;20200;-32
2023/06/30 04:02:17;;;;;;;6.80;3.38;;;18.00;99.90;;;;;;5043176;28;20212;-32
2023/06/30 04:04:47;;;;;;;6.85;3.33;;;17.90;99.90;;;;;;5043447;28;20635;-32
2023/06/30 04:07:15;;;;;;;8.10;3.33;;;17.90;99.90;;;;;;5042111;28;20666;-33
2023/06/30 04:09:46;;;;;;;7.25;3.17;;;17.90;99.90;;;;;;5042847;28;20200;-32
2023/06/30 04:12:16;;;;;;;10.05;3.30;;;17.90;99.90;;;;;;5041817;28;20196;-32
2023/06/30 04:14:46;;;;;;;6.82;3.38;;;18.00;99.90;;;;;;5043020;28;20215;-32
2023/06/30 04:17:14;;;;;;;8.45;4.03;;;18.00;99.90;;;;;;5043000;28;20211;-33
2023/06/30 04:19:48;;;;;;;5.47;3.13;;;17.90;99.90;;;;;;5042296;28;20207;-32
2023/06/30 04:22:15;;;;;;;7.03;3.70;;;17.90;99.90;;;;;;5042147;28;20301;-33
2023/06/30 04:24:44;;;;;;;8.88;3.17;;;17.90;99.90;;;;;;5040694;28;20654;-32
2023/06/30 04:27:13;;;;;;;5.13;2.83;;;17.80;99.90;;;;;;5042850;28;20914;-33
2023/06/30 04:29:40;;;;;;;7.90;3.47;;;17.80;99.90;;;;;;5040757;28;20203;-33
2023/06/30 04:32:11;;;;;;;7.53;3.15;;;17.80;99.90;;;;;;5040930;28;20211;-33
2023/06/30 04:34:38;;;;;;;6.68;3.40;;;17.80;99.90;;;;;;5042337;28;20296;-34
2023/06/30 04:37:09;;;;;;;6.63;2.92;;;17.80;99.90;;;;;;5042199;28;20238;-33
2023/06/30 04:39:42;;;;;;;8.05;3.22;;;17.80;99.90;;;;;;5042359;28;20231;-33
2023/06/30 04:42:09;;;;;;;8.05;2.90;;;17.80;99.90;;;;;;5042511;28;20649;-33
2023/06/30 04:44:38;;;;;;;6.57;3.10;;;17.80;99.90;;;;;;5042629;28;20353;-32
2023/06/30 04:47:06;;;;;;;8.57;3.15;;;17.80;99.90;;;;;;5040906;28;20210;-33
2023/06/30 04:49:33;;;;;;;9.27;3.30;;;17.80;99.90;;;;;;5042639;28;20614;-33
2023/06/30 04:52:06;;;;;;;8.07;3.35;;;17.80;99.90;;;;;;5056556;28;20282;-32
2023/06/30 04:54:33;;;;;;;7.20;3.17;;;17.80;99.90;;;;;;5042387;28;20200;-32
2023/06/30 04:57:00;;;;;;;9.75;3.40;;;17.80;99.90;;;;;;5042458;28;20201;-33
2023/06/30 04:59:33;;;;;;;6.63;2.97;;;17.90;99.90;;;;;;5040612;28;20196;-33
2023/06/30 05:02:00;;;;;;;8.38;3.60;;;17.80;99.90;;;;;;5041022;28;20690;-33
2023/06/30 05:04:31;;;;;;;6.57;3.17;;;17.90;99.90;;;;;;5040243;28;20643;-32
2023/06/30 05:07:01;;;;;;;7.77;2.93;;;17.90;99.90;;;;;;5056881;28;20658;-32
2023/06/30 05:09:28;;;;;;;6.18;3.35;;;17.90;99.90;;;;;;5040301;28;20693;-32
2023/06/30 05:11:58;;;;;;;8.02;3.50;;;17.90;99.90;;;;;;5040332;28;20211;-32
2023/06/30 05:14:27;;;;;;;9.82;3.38;;;17.90;99.90;;;;;;5040860;28;20197;-32
2023/06/30 05:16:54;;;;;;;6.72;3.28;;;17.90;99.90;;;;;;5042073;28;20262;-32
2023/06/30 05:19:22;;;;;;;4.63;2.60;;;17.90;99.90;;;;;;5041761;28;20200;-32
2023/06/30 05:21:54;;;;;;;8.35;3.22;;;17.90;99.90;;;;;;5044166;28;20208;-32
2023/06/30 05:24:24;;;;;;;5.05;2.90;;;17.90;99.90;;;;;;5045649;28;20730;-31
2023/06/30 05:26:53;;;;;;;7.10;2.95;;;17.90;99.90;;;;;;5044004;28;20202;-31
2023/06/30 05:29:22;;;;;;;6.85;2.78;;;18.00;99.90;;;;;;5045735;28;20205;-31
2023/06/30 05:31:52;;;;;;;6.47;2.78;;;18.00;99.90;;;;;;5045881;28;20617;-31
2023/06/30 05:34:19;;;;;;;8.52;3.10;;;18.00;99.90;;;;;;5043902;28;20295;-31
2023/06/30 05:36:49;;;;;;;6.63;2.80;;;18.00;99.90;;;;;;5045445;28;20685;-32
2023/06/30 05:39:16;;;;;;;7.05;2.53;;;18.00;99.90;;;;;;5043660;28;20231;-32
2023/06/30 05:41:46;;;;;;;5.85;2.58;;;18.00;99.90;;;;;;5045902;28;20196;-31
2023/06/30 05:44:18;;;;;;;7.38;2.92;;;18.00;99.90;;;;;;5043781;28;20239;-32
2023/06/30 05:46:51;;;;;;;4.63;2.70;;;18.10;99.90;;;;;;5044241;28;20204;-32
2023/06/30 05:49:18;;;;;;;4.55;2.20;;;18.10;99.90;;;;;;5045312;28;20208;-32
2023/06/30 05:51:45;;;;;;;11.32;2.80;;;18.10;99.90;;;;;;5043788;28;20718;-32
2023/06/30 05:54:13;;;;;;;6.95;2.50;;;18.10;99.90;;;;;;5043454;28;20204;-31
2023/06/30 05:56:43;;;;;;;5.63;2.67;;;18.10;99.90;;;;;;5045139;28;20574;-31
2023/06/30 05:59:14;;;;;;;4.63;2.38;;;18.20;99.90;;;;;;5060281;28;20208;-31
2023/06/30 06:01:42;;;;;;;5.10;2.20;;;18.20;99.90;;;;;;5043516;28;20216;-31
2023/06/30 06:04:11;;;;;;;7.13;2.95;;;18.20;99.90;;;;;;5042727;28;20243;-32
2023/06/30 06:06:39;;;;;;;7.00;2.83;;;18.30;99.90;;;;;;5044316;28;20322;-32
2023/06/30 06:09:07;;;;;;;8.32;2.95;;;18.30;99.90;;;;;;5045735;28;20193;-32
2023/06/30 06:11:39;;;;;;;6.50;2.50;;;18.30;99.90;;;;;;5045679;28;20674;-31
2023/06/30 06:14:08;;;;;;;8.75;2.78;;;18.30;99.90;;;;;;5045931;28;20205;-32
2023/06/30 06:16:36;;;;;;;6.38;2.60;;;18.40;99.90;;;;;;5045668;28;20207;-32
2023/06/30 06:19:03;;;;;;;7.60;2.40;;;18.40;99.90;;;;;;5045338;28;20258;-31
2023/06/30 06:21:35;;;;;;;7.55;2.58;;;18.50;99.90;;;;;;5045806;28;20206;-32
2023/06/30 06:24:07;;;;;;;6.45;2.50;;;18.40;99.90;;;;;;5045639;28;20229;-32
2023/06/30 06:26:36;;;;;;;6.13;2.95;;;18.50;99.90;;;;;;5045620;28;20291;-32
2023/06/30 06:29:04;;;;;;;5.30;2.80;;;18.50;99.90;;;;;;5043711;28;20204;-32
2023/06/30 06:31:38;;;;;;;8.23;2.58;;;18.50;99.90;;;;;;5043173;28;20200;-32
2023/06/30 06:34:05;;;;;;;15.55;3.40;;;18.60;99.90;;;;;;5044011;28;20238;-27
2023/06/30 06:36:32;;;;;;;4.97;2.28;;;18.50;99.90;;;;;;5045177;28;20207;-27
2023/06/30 06:39:05;;;;;;;4.93;2.28;;;18.50;99.90;;;;;;5060059;28;20266;-27
2023/06/30 06:41:32;;;;;;;6.15;2.25;;;18.60;99.90;;;;;;5027526;28;20367;-32
2023/06/30 06:43:59;;;;;;;4.03;1.88;;;18.60;99.90;;;;;;5043231;28;20232;-32
2023/06/30 06:46:27;;;;;;;5.72;2.50;;;18.70;99.90;;;;;;5045048;28;20212;-32
2023/06/30 06:48:56;;;;;;;4.63;2.30;;;18.70;99.90;;;;;;5043416;28;20204;-32
2023/06/30 06:51:24;;;;;;;4.93;2.17;;;18.70;99.90;;;;;;5043808;28;20208;-32
2023/06/30 06:53:57;;;;;;;6.25;2.42;;;18.60;99.90;;;;;;5043486;28;20228;-31
2023/06/30 06:56:24;;;;;;;6.50;2.00;;;18.70;99.90;;;;;;5044612;28;20200;-32
2023/06/30 06:58:53;;;;;;;3.20;1.67;;;18.70;99.90;;;;;;5042877;28;20780;-31
2023/06/30 07:01:23;;;;;;;5.65;2.25;;;18.70;99.90;;;;;;5044554;28;20199;-32
2023/06/30 07:03:50;;;;;;;3.80;2.20;;;18.70;99.90;;;;;;5042472;28;20228;-32
2023/06/30 07:06:22;;;;;;;6.93;2.47;;;18.70;99.90;;;;;;5042971;28;20204;-32
2023/06/30 07:08:49;;;;;;;4.72;2.03;;;18.70;99.90;;;;;;5044450;28;20447;-32
2023/06/30 07:11:16;;;;;;;4.88;2.13;;;18.80;99.90;;;;;;5044398;28;20279;-32
2023/06/30 07:13:44;;;;;;;5.47;1.80;;;18.80;99.90;;;;;;5042777;28;20287;-32
2023/06/30 07:16:11;;;;;;;5.90;2.28;;;18.80;99.90;;;;;;5043928;28;20678;-31
2023/06/30 07:18:43;;;;;;;8.88;2.60;;;18.80;99.90;;;;;;5044535;28;20294;-32
2023/06/30 07:21:12;;;;;;;14.93;4.07;;;18.90;99.90;;;;;;5044683;28;20208;-32
2023/06/30 07:23:42;;;;;;;6.55;2.70;;;18.90;99.90;;;;;;5042544;28;20248;-32
2023/06/30 07:26:09;;;;;;;9.52;2.80;;;18.90;99.90;;;;;;5058416;28;20322;-31
2023/06/30 07:28:39;;;;;;;7.57;2.47;;;19.00;99.90;;;;;;5043166;28;20204;-31
2023/06/30 07:31:08;;;;;;;13.60;3.35;;;19.00;99.90;;;;;;5043574;28;20212;-31
2023/06/30 07:33:36;;;;;;;9.52;2.55;;;19.00;99.90;;;;;;5043013;28;20203;-31
2023/06/30 07:36:06;;;;;;;5.65;2.10;;;19.00;99.90;;;;;;5040503;28;20754;-32
2023/06/30 07:38:35;;;;;;;3.95;1.88;;;19.10;99.90;;;;;;5041083;28;21039;-32
2023/06/30 07:41:05;;;;;;;4.57;2.30;;;19.10;99.90;;;;;;5040741;28;20219;-31
2023/06/30 07:43:32;;;;;;;3.42;1.75;;;19.20;99.90;;;;;;5042620;28;20318;-31
2023/06/30 07:46:02;;;;;;;4.40;2.00;;;19.20;99.90;;;;;;5041069;28;20511;-32
2023/06/30 07:48:32;;;;;;;6.22;2.33;;;19.20;99.90;;;;;;5024560;28;20200;-31
2023/06/30 07:50:59;;;;;;;5.93;2.35;;;19.20;99.90;;;;;;5041098;28;20800;-32
2023/06/30 07:53:38;;;;;;;5.60;2.00;;;19.20;99.90;;;;;;5042519;28;20211;-31
2023/06/30 07:56:09;;;;;;;7.13;2.53;;;19.30;99.90;;;;;;5042444;28;20200;-31
2023/06/30 07:58:36;;;;;;;8.75;2.80;;;19.30;99.90;;;;;;5041217;28;20200;-32
2023/06/30 08:01:03;;;;;;;4.97;2.42;;;19.40;99.90;;;;;;5040970;28;20207;-32
2023/06/30 08:03:31;;;;;;;5.40;2.45;;;19.40;99.90;;;;;;5042439;28;20262;-27
2023/06/30 08:06:01;;;;;;;4.25;2.05;;;19.50;99.90;;;;;;5041064;28;20303;-27
2023/06/30 08:08:31;;;;;;;4.95;2.35;;;19.50;99.90;;;;;;5040958;28;20688;-32
2023/06/30 08:11:00;;;;;;;7.45;2.20;;;19.60;99.90;;;;;;5040919;28;20207;-31
2023/06/30 08:13:32;;;;;;;4.78;2.17;;;19.60;99.90;;;;;;5042097;28;20686;-32
2023/06/30 08:15:59;;;;;;;3.67;1.92;;;19.60;99.90;;;;;;5042374;28;20559;-31
2023/06/30 08:18:29;;;;;;;2.88;1.98;;;19.60;99.90;;;;;;5042167;28;20200;-32
2023/06/30 08:21:01;;;;;;;4.70;2.33;;;19.60;99.90;;;;;;5042877;28;20227;-31
2023/06/30 08:23:28;;;;;;;3.72;2.03;;;19.70;99.90;;;;;;5042252;28;20244;-31
2023/06/30 08:25:58;;;;;;;8.77;2.40;;;19.70;99.90;;;;;;5042485;28;20204;-32
2023/06/30 08:28:25;;;;;;;5.68;2.58;;;19.70;99.90;;;;;;5040407;28;20253;-32
2023/06/30 08:30:55;;;;;;;4.85;2.25;;;19.70;99.90;;;;;;5040450;28;20268;-31
2023/06/30 08:33:29;;;;;;;8.45;2.88;;;19.70;99.90;;;;;;5040120;28;20311;-31
2023/06/30 08:36:04;;;;;;;5.85;2.40;;;19.70;99.90;;;;;;5055789;28;20196;-32
2023/06/30 08:38:36;;;;;;;4.82;2.00;;;19.70;99.90;;;;;;5056343;28;20277;-32
2023/06/30 08:41:06;;;;;;;5.15;2.22;;;19.70;99.90;;;;;;5057308;28;20218;-32
2023/06/30 08:43:37;;;;;;;5.82;2.50;;;19.80;99.90;;;;;;5041945;28;20211;-32
2023/06/30 08:46:07;;;;;;;4.63;2.30;;;19.90;99.90;;;;;;5042031;28;20250;-31
2023/06/30 08:48:35;;;;;;;5.00;2.40;;;19.90;99.90;;;;;;5039687;28;20679;-31
2023/06/30 08:51:04;;;;;;;4.68;2.20;;;20.00;99.90;;;;;;5040747;28;20743;-32
2023/06/30 08:53:32;;;;;;;4.55;2.08;;;20.10;99.90;;;;;;5043446;28;20204;-32
2023/06/30 08:55:59;;;;;;;5.38;2.53;;;20.10;99.90;;;;;;5045580;28;20302;-32
2023/06/30 08:58:28;;;;;;;5.00;2.40;;;20.20;99.90;;;;;;5043897;28;20294;-32
2023/06/30 09:00:58;;;;;;;6.55;2.45;;;20.20;99.90;;;;;;5060458;28;20205;-32
2023/06/30 09:03:28;;;;;;;5.82;2.10;;;20.30;99.90;;;;;;5043607;28;20250;-32
2023/06/30 09:06:00;;;;;;;4.20;1.85;;;20.40;99.90;;;;;;5045570;28;20431;-32
2023/06/30 09:08:38;;;;;;;3.83;1.88;;;20.40;99.90;;;;;;5043565;28;20307;-32
2023/06/30 09:11:08;;;;;;;3.90;1.80;;;20.50;99.90;;;;;;5045799;28;20204;-32
2023/06/30 09:13:38;;;;;;;8.30;1.92;;;20.50;99.90;;;;;;5045219;28;20210;-33
2023/06/30 09:16:10;;;;;;;3.75;1.60;;;20.60;99.90;;;;;;5045714;28;20303;-32
2023/06/30 09:18:40;;;;;;;5.18;2.00;;;20.60;99.90;;;;;;5044251;28;20212;-33
2023/06/30 09:21:08;;;;;;;4.45;2.00;;;20.60;99.90;;;;;;5045644;28;20742;-32
2023/06/30 09:23:39;;;;;;;3.85;2.20;;;20.60;99.90;;;;;;5045059;28;20327;-32
2023/06/30 09:26:13;;;;;;;8.00;2.20;;;20.60;99.90;;;;;;5045354;28;20957;-32
2023/06/30 09:28:44;;;;;;;3.13;2.00;;;20.70;99.90;;;;;;5059880;28;20732;-32
2023/06/30 09:31:12;;;;;;;4.28;2.10;;;20.70;99.90;;;;;;5059934;28;20205;-32
2023/06/30 09:33:42;;;;;;;4.72;1.98;;;20.70;99.90;;;;;;5027865;28;20290;-32
2023/06/30 09:36:17;;;;;;;3.38;1.75;;;20.70;99.90;;;;;;5044964;28;20261;-32
2023/06/30 09:38:44;;;;;;;4.40;1.90;;;20.70;99.90;;;;;;5045522;28;20426;-32
2023/06/30 09:41:23;;;;;;;6.20;1.83;;;20.80;99.90;;;;;;5043202;28;20204;-32
2023/06/30 09:43:57;;;;;;;4.18;1.90;;;20.80;99.90;;;;;;5044888;28;20234;-37
2023/06/30 09:46:27;;;;;;;3.08;1.65;;;20.90;99.90;;;;;;5044150;28;20200;-36
2023/06/30 09:48:55;;;;;;;5.45;1.80;;;20.90;99.90;;;;;;5045272;28;20282;-32
2023/06/30 09:51:23;;;;;;;3.50;2.05;;;20.90;99.90;;;;;;5042995;28;20277;-37
2023/06/30 09:53:54;;;;;;;3.13;1.98;;;21.10;99.90;;;;;;5043330;28;20213;-32
2023/06/30 09:56:22;;;;;;;4.22;1.88;;;21.10;99.90;;;;;;5045043;28;20207;-33
2023/06/30 09:58:56;;;;;;;4.70;1.90;;;21.20;99.90;;;;;;5044935;28;20193;-28
2023/06/30 10:01:24;;;;;;;5.32;2.03;;;21.30;99.90;;;;;;5044732;28;20203;-28
2023/06/30 10:03:54;;;;;;;5.47;2.00;;;21.30;99.90;;;;;;5044539;28;20196;-27
2023/06/30 10:06:23;;;;;;;4.97;2.03;;;21.40;99.90;;;;;;5043351;28;20233;-27
2023/06/30 10:08:55;;;;;;;6.70;2.40;;;21.50;99.90;;;;;;5044081;28;20293;-27
2023/06/30 10:11:27;;;;;;;5.47;2.22;;;21.50;99.90;;;;;;5044841;28;20208;-27
2023/06/30 10:13:59;;;;;;;5.65;2.78;;;21.60;99.90;;;;;;5059138;28;20381;-27
2023/06/30 10:16:27;;;;;;;9.07;5.10;;;21.70;99.90;;;;;;5044231;28;20207;-27
2023/06/30 10:19:03;;;;;;;5.78;2.50;;;21.80;99.90;;;;;;5042886;28;20200;-27
2023/06/30 10:21:30;;;;;;;6.60;3.00;;;21.80;99.90;;;;;;5059189;28;20192;-27
2023/06/30 10:24:02;;;;;;;3.95;1.90;;;21.90;99.90;;;;;;5042993;28;20321;-27
2023/06/30 10:26:36;;;;;;;2.83;1.80;;;22.00;99.90;;;;;;5059891;28;20199;-31
2023/06/30 10:29:04;;;;;;;3.17;1.55;;;22.10;99.90;;;;;;5044869;28;20235;-32
2023/06/30 10:31:35;;;;;;;4.60;1.73;;;22.10;99.90;;;;;;5043924;28;20203;-32
2023/06/30 10:34:03;;;;;;;6.38;2.45;;;22.10;99.90;;;;;;5044775;28;20192;-32
2023/06/30 10:36:33;;;;;;;3.80;1.60;;;22.20;99.90;;;;;;5043160;28;20196;-32
2023/06/30 10:39:04;;;;;;;3.83;1.50;;;22.20;99.90;;;;;;5044408;28;20287;-27
2023/06/30 10:41:45;;;;;;;5.30;2.00;;;22.20;99.90;;;;;;5044225;28;20781;-27
2023/06/30 10:44:13;;;;;;;3.08;1.70;;;22.30;99.90;;;;;;5043602;28;20314;-27
2023/06/30 10:46:52;;;;;;;2.40;1.42;;;22.30;99.90;;;;;;5042525;28;20660;-28
2023/06/30 10:49:34;;;;;;;5.63;1.98;;;22.40;99.90;;;;;;5042126;28;20362;-27
2023/06/30 10:52:11;;;;;;;3.35;1.73;;;22.50;99.90;;;;;;5058017;28;20661;-27
2023/06/30 10:54:38;;;;;;;4.35;1.50;;;22.50;99.90;;;;;;5041901;28;20204;-27
2023/06/30 10:57:22;;;;;;;7.93;1.88;;;22.60;99.90;;;;;;5043357;28;20234;-27
2023/06/30 11:00:05;;;;;;;5.10;1.80;;;22.60;99.90;;;;;;5043028;28;20204;-27
2023/06/30 11:02:37;;;;;;;4.03;1.50;;;22.70;99.90;;;;;;5042829;28;20196;-28
2023/06/30 11:05:26;;;;;;;2.78;1.50;;;22.70;99.90;;;;;;5041124;28;20319;-27
2023/06/30 11:08:03;;;;;;;3.05;1.80;;;22.80;99.90;;;;;;5041537;28;20291;-27
2023/06/30 11:10:45;;;;;;;3.30;1.55;;;22.80;99.90;;;;;;5041624;28;20199;-28
2023/06/30 11:13:13;;;;;;;3.85;1.50;;;22.80;99.90;;;;;;5057822;28;20303;-28
2023/06/30 11:15:45;;;;;;;2.90;1.17;;;22.80;99.90;;;;;;5043107;28;20211;-27
2023/06/30 11:18:19;;;;;;;4.32;1.60;;;22.80;99.90;;;;;;5042517;28;20208;-27
2023/06/30 11:21:03;;;;;;;6.15;1.65;;;22.80;99.90;;;;;;5043312;28;20234;-27
2023/06/30 11:23:39;;;;;;;3.75;1.45;;;22.80;99.90;;;;;;5043257;28;20235;-28
2023/06/30 11:26:17;;;;;;;2.35;1.60;;;22.90;99.90;;;;;;5042719;28;20343;-28
2023/06/30 11:28:54;;;;;;;5.20;1.77;;;22.90;99.90;;;;;;5041761;28;20200;-27
2023/06/30 11:31:23;;;;;;;4.38;1.80;;;23.00;99.90;;;;;;5041367;28;20206;-28
2023/06/30 11:33:51;;;;;;;4.88;1.67;;;23.00;99.90;;;;;;5058493;28;20656;-28
2023/06/30 11:36:18;;;;;;;4.35;1.80;;;23.10;99.90;;;;;;5042669;28;20522;-28
2023/06/30 11:38:52;;;;;;;3.53;1.20;;;23.10;99.90;;;;;;5042883;28;20251;-28
2023/06/30 11:41:20;;;;;;;3.08;1.50;;;23.10;99.90;;;;;;5042850;28;20612;-28
2023/06/30 11:43:53;;;;;;;3.85;1.52;;;23.10;99.90;;;;;;5040658;28;20212;-28
2023/06/30 11:46:21;;;;;;;2.45;1.70;;;23.20;99.90;;;;;;5042984;28;20602;-27
2023/06/30 11:48:49;;;;;;;2.97;1.50;;;23.20;99.90;;;;;;5040906;28;20204;-27
2023/06/30 11:51:24;;;;;;;5.47;1.63;;;23.20;99.90;;;;;;5041485;28;20205;-28
2023/06/30 11:53:56;;;;;;;2.45;1.38;;;23.30;99.90;;;;;;5041442;28;20195;-27
2023/06/30 11:56:23;;;;;;;4.47;1.95;;;23.30;99.90;;;;;;5042689;28;20215;-27
2023/06/30 11:58:55;;;;;;;3.53;1.75;;;23.30;99.90;;;;;;5041506;28;20197;-27
2023/06/30 12:01:28;;;;;;;4.53;1.95;;;23.40;99.90;;;;;;5043038;28;20200;-27
2023/06/30 12:04:19;;;;;;;2.45;1.50;;;23.40;99.90;;;;;;5040773;28;20286;-27
2023/06/30 12:06:47;;;;;;;3.28;1.33;;;23.50;99.90;;;;;;5056934;28;20979;-27
2023/06/30 12:09:17;;;;;;;4.15;1.92;;;23.50;99.90;;;;;;5040675;28;20219;-33
2023/06/30 12:11:48;;;;;;;4.78;1.80;;;23.60;99.90;;;;;;5041093;28;20227;-33
2023/06/30 12:14:26;;;;;;;2.95;1.70;;;23.70;99.90;;;;;;5043072;28;20223;-33
2023/06/30 12:16:55;;;;;;;4.30;1.60;;;23.80;99.90;;;;;;5042351;28;20502;-32
2023/06/30 12:19:29;;;;;;;4.45;1.70;;;23.80;99.90;;;;;;5056826;28;20208;-33
2023/06/30 12:22:01;;;;;;;3.20;1.45;;;23.90;99.90;;;;;;5042037;28;20258;-32
2023/06/30 12:24:32;;;;;;;2.90;1.30;;;23.90;99.90;;;;;;5040447;28;20210;-32
2023/06/30 12:27:06;;;;;;;6.20;1.58;;;23.90;99.90;;;;;;5042874;28;20207;-32
2023/06/30 12:29:35;;;;;;;4.00;1.63;;;23.90;99.90;;;;;;5040126;28;20566;-32
2023/06/30 12:32:17;;;;;;;3.40;1.55;;;23.90;99.90;;;;;;5042604;28;20203;-33
2023/06/30 12:34:47;;;;;;;2.38;1.40;;;23.90;99.90;;;;;;5040560;28;20196;-32
2023/06/30 12:37:19;;;;;;;3.47;1.52;;;24.00;99.90;;;;;;5042337;28;20204;-32
2023/06/30 12:39:47;;;;;;;1.60;1.35;;;24.00;99.90;;;;;;5042373;28;20318;-32
2023/06/30 12:42:14;;;;;;;2.50;1.50;;;24.00;99.90;;;;;;5042657;28;20223;-32
2023/06/30 12:44:41;;;;;;;4.25;1.85;;;24.10;99.90;;;;;;5042026;28;20291;-32
2023/06/30 12:47:11;;;;;;;4.93;1.55;;;24.10;99.90;;;;;;5040576;28;20201;-32
2023/06/30 12:49:40;;;;;;;7.55;1.63;;;24.20;99.90;;;;;;5040056;28;20429;-32
2023/06/30 12:52:10;;;;;;;6.80;1.52;;;24.20;99.90;;;;;;5040139;28;20198;-31
2023/06/30 12:54:40;;;;;;;4.55;1.55;;;24.30;99.50;;;;;;5040280;28;20211;-33
2023/06/30 12:57:07;;;;;;;2.97;1.60;;;24.30;99.90;;;;;;5040183;28;20478;-33
2023/06/30 12:59:37;;;;;;;3.05;1.60;;;24.30;99.90;;;;;;5041281;28;20283;-32
2023/06/30 13:02:05;;;;;;;2.20;1.17;;;24.30;99.90;;;;;;5039773;28;20192;-33